Hauptseite
METAR-TAF:

METAR-TAF

Flughäfen :

Flughafen Verona

Verona, Italien

Breite: 45-23N, Länge: 010-52E, Höhe: 67 m

Beobachtung

Neuester Wetterbericht von vor 26 Minuten, um 01:50 UTC
Wind 6 kt aus Nord/Nordost
Temperatur 18°C
Luftfeuchtigkeit 56%
Luftdruck 1020 hPa
Sichtweite 10 km oder mehr
keine Wolken unter 1500 m und keine Kumulonimbus oder Gewitterwolken

METAR: LIPX 230150Z 03006KT CAVOK 18/09 Q1020

Zeit: 04:16 (02:16 UTC)

Prognose

Neuester Wetterbericht von vor 3 Stunden und 16 Minuten, um 23:00 UTC
Gültige Prognose vom 23 um 00 UTC bis 23 um 09 UTC
Wind 6 kt aus Ost
Sichtweite 10 km oder mehr
Aufgelockert bewölkt in der Höhe von 7000 ft

TAF: LIPX 222300Z 2300/2309 08006KT 9999 SCT070

Wetterbeobachtungen und Prognosen von mehr als 4000 Flughäfen (METAR und TAF Bericht).

Die verfügbaren Stationen werden durch gelbe und rote Markierungen auf der Karte dargestellt.

Führen Sie die Maus auf sie, um den Namen der Station zu sehen.

Darauf klicken, um die Beobachtung von Wetterbeobachtungen und Prognosen zu sehen.

Um die Karte zu ändern : klicken Sie auf den grünen Tasten mit einem schwarzen Kreuz Zum Vergrößern, auf den grünen Button mit einem Gedankenstrich zu verkleinern, oder auf die grünen Pfeile für benachbarte Karten.


METAR-TAF: